Bergen, Canada
Current Conditions -  °F | °C
As of 2:00 PM on Tuesday 27 Jan 2015 (Local Time) from CYBW Reporting Station
Clear Clear  
Wind Chill: 55°   Ceiling: Unl
Heat Index: 55°   Visibility: 9mi
Dew Point: 30°   Wind: 5mph
Humidity: 38%   Direction: 180°S
Pressure: 29.74"   Gusts: NA
Location:  51.71°N, 114.63°W
Report Text: CYBW 272100Z AUTO 18004KT 9SM CLR 13/M01 A2974 RMK SLP085 DENSITY ALT 4800FT
Loading
Personal Weather Stations






























Interactive Weather Map New forecast layout! Learn more

10-Day Weather Forecast

Advertisements
Track Severe Weather on mobile